sensor_id;sensor_type;location;lat;lon;timestamp;P1;durP1;ratioP1;P2;durP2;ratioP2
19879;SDS011;10102;50.828;4.416;2023-03-23T00:01:02;5.30;;;4.13;;
19879;SDS011;10102;50.828;4.416;2023-03-23T00:03:29;8.02;;;4.32;;
19879;SDS011;10102;50.828;4.416;2023-03-23T00:05:57;5.85;;;4.38;;
19879;SDS011;10102;50.828;4.416;2023-03-23T00:08:35;5.25;;;4.03;;
19879;SDS011;10102;50.828;4.416;2023-03-23T00:11:13;9.35;;;4.25;;
19879;SDS011;10102;50.828;4.416;2023-03-23T00:13:42;5.95;;;4.30;;
19879;SDS011;10102;50.828;4.416;2023-03-23T00:16:10;5.13;;;4.45;;
19879;SDS011;10102;50.828;4.416;2023-03-23T00:18:48;5.78;;;4.00;;
19879;SDS011;10102;50.828;4.416;2023-03-23T00:21:19;6.78;;;4.63;;
19879;SDS011;10102;50.828;4.416;2023-03-23T00:23:50;4.82;;;4.30;;
19879;SDS011;10102;50.828;4.416;2023-03-23T00:26:16;5.75;;;4.07;;
19879;SDS011;10102;50.828;4.416;2023-03-23T00:28:42;5.90;;;4.35;;
19879;SDS011;10102;50.828;4.416;2023-03-23T00:31:08;7.43;;;3.30;;
19879;SDS011;10102;50.828;4.416;2023-03-23T00:33:37;6.68;;;4.28;;
19879;SDS011;10102;50.828;4.416;2023-03-23T00:36:06;5.93;;;3.60;;
19879;SDS011;10102;50.828;4.416;2023-03-23T00:38:34;5.03;;;4.25;;
19879;SDS011;10102;50.828;4.416;2023-03-23T00:41:00;7.10;;;4.15;;
19879;SDS011;10102;50.828;4.416;2023-03-23T00:43:29;7.25;;;4.13;;
19879;SDS011;10102;50.828;4.416;2023-03-23T00:45:56;6.30;;;4.38;;
19879;SDS011;10102;50.828;4.416;2023-03-23T00:48:26;5.57;;;4.20;;
19879;SDS011;10102;50.828;4.416;2023-03-23T00:50:52;9.13;;;3.83;;
19879;SDS011;10102;50.828;4.416;2023-03-23T00:53:19;7.43;;;4.10;;
19879;SDS011;10102;50.828;4.416;2023-03-23T00:55:45;8.60;;;4.55;;
19879;SDS011;10102;50.828;4.416;2023-03-23T00:58:12;4.28;;;3.85;;
19879;SDS011;10102;50.828;4.416;2023-03-23T01:00:39;8.98;;;3.90;;
19879;SDS011;10102;50.828;4.416;2023-03-23T01:03:05;8.55;;;3.83;;
19879;SDS011;10102;50.828;4.416;2023-03-23T01:05:35;5.45;;;4.72;;
19879;SDS011;10102;50.828;4.416;2023-03-23T01:08:02;6.05;;;3.55;;
19879;SDS011;10102;50.828;4.416;2023-03-23T01:10:29;7.38;;;4.57;;
19879;SDS011;10102;50.828;4.416;2023-03-23T01:12:58;5.15;;;4.03;;
19879;SDS011;10102;50.828;4.416;2023-03-23T01:15:26;5.63;;;4.47;;
19879;SDS011;10102;50.828;4.416;2023-03-23T01:17:53;4.45;;;3.97;;
19879;SDS011;10102;50.828;4.416;2023-03-23T01:20:19;7.30;;;4.18;;
19879;SDS011;10102;50.828;4.416;2023-03-23T01:22:45;8.27;;;4.72;;
19879;SDS011;10102;50.828;4.416;2023-03-23T01:25:11;5.18;;;3.90;;
19879;SDS011;10102;50.828;4.416;2023-03-23T01:27:37;7.40;;;4.63;;
19879;SDS011;10102;50.828;4.416;2023-03-23T01:30:04;6.57;;;4.70;;
19879;SDS011;10102;50.828;4.416;2023-03-23T01:32:31;4.63;;;3.75;;
19879;SDS011;10102;50.828;4.416;2023-03-23T01:34:57;7.28;;;4.30;;
19879;SDS011;10102;50.828;4.416;2023-03-23T01:37:23;5.82;;;3.83;;
19879;SDS011;10102;50.828;4.416;2023-03-23T01:39:52;4.93;;;4.05;;
19879;SDS011;10102;50.828;4.416;2023-03-23T01:42:20;7.80;;;3.97;;
19879;SDS011;10102;50.828;4.416;2023-03-23T01:47:16;6.40;;;4.35;;
19879;SDS011;10102;50.828;4.416;2023-03-23T01:49:48;5.78;;;3.60;;
19879;SDS011;10102;50.828;4.416;2023-03-23T01:52:25;7.07;;;4.45;;
19879;SDS011;10102;50.828;4.416;2023-03-23T01:54:54;6.65;;;3.63;;
19879;SDS011;10102;50.828;4.416;2023-03-23T01:57:21;6.53;;;3.67;;
19879;SDS011;10102;50.828;4.416;2023-03-23T01:59:52;4.97;;;3.85;;
19879;SDS011;10102;50.828;4.416;2023-03-23T02:02:20;5.13;;;3.53;;
19879;SDS011;10102;50.828;4.416;2023-03-23T02:04:47;5.13;;;3.22;;
19879;SDS011;10102;50.828;4.416;2023-03-23T02:07:14;6.40;;;4.40;;
19879;SDS011;10102;50.828;4.416;2023-03-23T02:09:42;4.28;;;3.58;;
19879;SDS011;10102;50.828;4.416;2023-03-23T02:12:08;8.20;;;3.97;;
19879;SDS011;10102;50.828;4.416;2023-03-23T02:14:33;6.28;;;3.38;;
19879;SDS011;10102;50.828;4.416;2023-03-23T02:17:22;6.18;;;3.55;;
19879;SDS011;10102;50.828;4.416;2023-03-23T02:36:48;6.93;;;2.85;;
19879;SDS011;10102;50.828;4.416;2023-03-23T02:39:23;3.42;;;2.53;;
19879;SDS011;10102;50.828;4.416;2023-03-23T02:41:53;4.00;;;2.58;;
19879;SDS011;10102;50.828;4.416;2023-03-23T02:44:23;5.60;;;2.70;;
19879;SDS011;10102;50.828;4.416;2023-03-23T02:46:55;7.22;;;2.35;;
19879;SDS011;10102;50.828;4.416;2023-03-23T02:49:23;4.53;;;1.88;;
19879;SDS011;10102;50.828;4.416;2023-03-23T02:51:51;3.72;;;2.10;;
19879;SDS011;10102;50.828;4.416;2023-03-23T02:54:21;2.60;;;2.20;;
19879;SDS011;10102;50.828;4.416;2023-03-23T02:56:50;7.80;;;2.53;;
19879;SDS011;10102;50.828;4.416;2023-03-23T02:59:18;4.78;;;2.10;;
19879;SDS011;10102;50.828;4.416;2023-03-23T03:04:14;1.58;;;1.23;;
19879;SDS011;10102;50.828;4.416;2023-03-23T03:09:50;2.63;;;1.92;;
19879;SDS011;10102;50.828;4.416;2023-03-23T03:12:31;5.55;;;1.85;;
19879;SDS011;10102;50.828;4.416;2023-03-23T03:15:22;3.92;;;1.73;;
19879;SDS011;10102;50.828;4.416;2023-03-23T03:18:37;2.38;;;1.50;;
19879;SDS011;10102;50.828;4.416;2023-03-23T03:20:49;3.75;;;1.52;;
19879;SDS011;10102;50.828;4.416;2023-03-23T03:23:19;2.72;;;1.70;;
19879;SDS011;10102;50.828;4.416;2023-03-23T03:25:47;3.80;;;1.77;;
19879;SDS011;10102;50.828;4.416;2023-03-23T03:28:17;4.50;;;1.83;;
19879;SDS011;10102;50.828;4.416;2023-03-23T03:30:47;2.55;;;1.73;;
19879;SDS011;10102;50.828;4.416;2023-03-23T03:33:19;4.63;;;1.67;;
19879;SDS011;10102;50.828;4.416;2023-03-23T03:35:45;3.47;;;2.00;;
19879;SDS011;10102;50.828;4.416;2023-03-23T03:38:12;6.25;;;2.03;;
19879;SDS011;10102;50.828;4.416;2023-03-23T03:40:38;1.55;;;1.45;;
19879;SDS011;10102;50.828;4.416;2023-03-23T03:43:04;5.43;;;2.10;;
19879;SDS011;10102;50.828;4.416;2023-03-23T03:45:31;3.90;;;2.13;;
19879;SDS011;10102;50.828;4.416;2023-03-23T03:47:58;7.82;;;2.17;;
19879;SDS011;10102;50.828;4.416;2023-03-23T03:50:25;3.42;;;2.00;;
19879;SDS011;10102;50.828;4.416;2023-03-23T03:52:51;5.55;;;2.38;;
19879;SDS011;10102;50.828;4.416;2023-03-23T03:55:17;5.90;;;2.55;;
19879;SDS011;10102;50.828;4.416;2023-03-23T03:57:43;7.45;;;2.05;;
19879;SDS011;10102;50.828;4.416;2023-03-23T04:00:09;7.10;;;2.72;;
19879;SDS011;10102;50.828;4.416;2023-03-23T04:02:39;6.78;;;2.30;;
19879;SDS011;10102;50.828;4.416;2023-03-23T04:05:12;6.82;;;2.40;;
19879;SDS011;10102;50.828;4.416;2023-03-23T04:07:38;6.00;;;2.30;;
19879;SDS011;10102;50.828;4.416;2023-03-23T04:10:05;3.75;;;2.28;;
19879;SDS011;10102;50.828;4.416;2023-03-23T04:12:32;6.45;;;1.85;;
19879;SDS011;10102;50.828;4.416;2023-03-23T04:14:58;6.95;;;1.98;;
19879;SDS011;10102;50.828;4.416;2023-03-23T04:17:23;6.75;;;2.28;;
19879;SDS011;10102;50.828;4.416;2023-03-23T04:19:53;9.15;;;2.28;;
19879;SDS011;10102;50.828;4.416;2023-03-23T04:22:22;4.30;;;1.70;;
19879;SDS011;10102;50.828;4.416;2023-03-23T04:24:49;7.65;;;1.80;;
19879;SDS011;10102;50.828;4.416;2023-03-23T04:27:16;7.43;;;2.13;;
19879;SDS011;10102;50.828;4.416;2023-03-23T04:29:43;5.82;;;1.70;;
19879;SDS011;10102;50.828;4.416;2023-03-23T04:32:13;9.98;;;1.90;;
19879;SDS011;10102;50.828;4.416;2023-03-23T04:34:39;5.07;;;1.85;;
19879;SDS011;10102;50.828;4.416;2023-03-23T04:37:06;5.38;;;2.25;;
19879;SDS011;10102;50.828;4.416;2023-03-23T04:39:33;7.50;;;1.50;;
19879;SDS011;10102;50.828;4.416;2023-03-23T04:41:59;6.45;;;2.17;;
19879;SDS011;10102;50.828;4.416;2023-03-23T04:44:26;8.02;;;2.35;;
19879;SDS011;10102;50.828;4.416;2023-03-23T04:46:52;6.40;;;1.50;;
19879;SDS011;10102;50.828;4.416;2023-03-23T04:49:19;9.43;;;1.75;;
19879;SDS011;10102;50.828;4.416;2023-03-23T04:51:48;6.68;;;1.70;;
19879;SDS011;10102;50.828;4.416;2023-03-23T04:54:15;4.18;;;1.83;;
19879;SDS011;10102;50.828;4.416;2023-03-23T04:56:41;6.13;;;1.63;;
19879;SDS011;10102;50.828;4.416;2023-03-23T04:59:08;5.38;;;1.77;;
19879;SDS011;10102;50.828;4.416;2023-03-23T05:01:33;6.72;;;2.00;;
19879;SDS011;10102;50.828;4.416;2023-03-23T05:04:02;4.95;;;1.95;;
19879;SDS011;10102;50.828;4.416;2023-03-23T05:06:27;6.75;;;1.63;;
19879;SDS011;10102;50.828;4.416;2023-03-23T05:08:53;8.05;;;2.28;;
19879;SDS011;10102;50.828;4.416;2023-03-23T05:11:19;5.07;;;1.67;;
19879;SDS011;10102;50.828;4.416;2023-03-23T05:13:45;5.10;;;2.28;;
19879;SDS011;10102;50.828;4.416;2023-03-23T05:16:12;3.40;;;2.17;;
19879;SDS011;10102;50.828;4.416;2023-03-23T05:18:37;8.05;;;1.73;;
19879;SDS011;10102;50.828;4.416;2023-03-23T05:21:04;7.00;;;2.15;;
19879;SDS011;10102;50.828;4.416;2023-03-23T05:23:29;4.20;;;1.80;;
19879;SDS011;10102;50.828;4.416;2023-03-23T05:25:59;7.68;;;2.55;;
19879;SDS011;10102;50.828;4.416;2023-03-23T05:28:26;8.80;;;2.05;;
19879;SDS011;10102;50.828;4.416;2023-03-23T05:30:52;3.20;;;1.80;;
19879;SDS011;10102;50.828;4.416;2023-03-23T05:33:18;4.50;;;1.75;;
19879;SDS011;10102;50.828;4.416;2023-03-23T05:35:45;4.32;;;1.88;;
19879;SDS011;10102;50.828;4.416;2023-03-23T05:38:12;7.30;;;1.60;;
19879;SDS011;10102;50.828;4.416;2023-03-23T05:40:39;6.15;;;1.95;;
19879;SDS011;10102;50.828;4.416;2023-03-23T05:43:07;4.82;;;1.92;;
19879;SDS011;10102;50.828;4.416;2023-03-23T05:45:32;6.03;;;2.25;;
19879;SDS011;10102;50.828;4.416;2023-03-23T05:48:00;3.15;;;1.60;;
19879;SDS011;10102;50.828;4.416;2023-03-23T05:50:26;3.83;;;1.63;;
19879;SDS011;10102;50.828;4.416;2023-03-23T05:52:52;4.93;;;2.00;;
19879;SDS011;10102;50.828;4.416;2023-03-23T05:55:19;7.28;;;2.28;;
19879;SDS011;10102;50.828;4.416;2023-03-23T05:57:45;6.32;;;1.90;;
19879;SDS011;10102;50.828;4.416;2023-03-23T06:00:11;6.13;;;1.92;;
19879;SDS011;10102;50.828;4.416;2023-03-23T06:02:45;6.50;;;1.80;;
19879;SDS011;10102;50.828;4.416;2023-03-23T06:05:13;3.63;;;1.85;;
19879;SDS011;10102;50.828;4.416;2023-03-23T06:07:40;6.95;;;1.98;;
19879;SDS011;10102;50.828;4.416;2023-03-23T06:10:07;5.60;;;1.90;;
19879;SDS011;10102;50.828;4.416;2023-03-23T06:12:34;4.75;;;1.92;;
19879;SDS011;10102;50.828;4.416;2023-03-23T06:15:00;5.68;;;1.83;;
19879;SDS011;10102;50.828;4.416;2023-03-23T06:17:26;9.98;;;2.22;;
19879;SDS011;10102;50.828;4.416;2023-03-23T06:19:52;7.32;;;2.35;;
19879;SDS011;10102;50.828;4.416;2023-03-23T06:22:18;7.28;;;2.17;;
19879;SDS011;10102;50.828;4.416;2023-03-23T06:24:44;4.03;;;1.98;;
19879;SDS011;10102;50.828;4.416;2023-03-23T06:27:10;7.35;;;2.05;;
19879;SDS011;10102;50.828;4.416;2023-03-23T06:29:36;9.25;;;2.67;;
19879;SDS011;10102;50.828;4.416;2023-03-23T06:32:03;6.45;;;2.33;;
19879;SDS011;10102;50.828;4.416;2023-03-23T06:34:29;9.73;;;2.45;;
19879;SDS011;10102;50.828;4.416;2023-03-23T06:36:59;8.02;;;2.28;;
19879;SDS011;10102;50.828;4.416;2023-03-23T06:39:26;5.93;;;2.17;;
19879;SDS011;10102;50.828;4.416;2023-03-23T06:41:56;11.05;;;2.58;;
19879;SDS011;10102;50.828;4.416;2023-03-23T06:44:22;5.07;;;2.38;;
19879;SDS011;10102;50.828;4.416;2023-03-23T06:46:47;8.23;;;2.38;;
19879;SDS011;10102;50.828;4.416;2023-03-23T06:49:13;3.92;;;2.10;;
19879;SDS011;10102;50.828;4.416;2023-03-23T06:51:39;7.85;;;1.92;;
19879;SDS011;10102;50.828;4.416;2023-03-23T06:54:05;18.67;;;3.35;;
19879;SDS011;10102;50.828;4.416;2023-03-23T06:56:31;21.95;;;3.00;;
19879;SDS011;10102;50.828;4.416;2023-03-23T06:58:57;30.50;;;4.20;;
19879;SDS011;10102;50.828;4.416;2023-03-23T07:01:23;4.28;;;2.03;;
19879;SDS011;10102;50.828;4.416;2023-03-23T07:03:50;13.77;;;2.38;;
19879;SDS011;10102;50.828;4.416;2023-03-23T07:06:15;10.95;;;2.80;;
19879;SDS011;10102;50.828;4.416;2023-03-23T07:08:41;7.13;;;2.70;;
19879;SDS011;10102;50.828;4.416;2023-03-23T07:11:07;17.75;;;2.83;;
19879;SDS011;10102;50.828;4.416;2023-03-23T07:13:33;8.05;;;2.63;;
19879;SDS011;10102;50.828;4.416;2023-03-23T07:15:58;7.05;;;2.33;;
19879;SDS011;10102;50.828;4.416;2023-03-23T07:18:24;5.95;;;2.35;;
19879;SDS011;10102;50.828;4.416;2023-03-23T07:20:51;9.80;;;2.22;;
19879;SDS011;10102;50.828;4.416;2023-03-23T07:23:17;4.88;;;1.60;;
19879;SDS011;10102;50.828;4.416;2023-03-23T07:25:44;3.78;;;1.40;;
19879;SDS011;10102;50.828;4.416;2023-03-23T07:28:11;4.53;;;1.67;;
19879;SDS011;10102;50.828;4.416;2023-03-23T07:30:37;3.78;;;1.35;;
19879;SDS011;10102;50.828;4.416;2023-03-23T07:33:05;2.70;;;1.27;;
19879;SDS011;10102;50.828;4.416;2023-03-23T07:35:31;4.20;;;1.58;;
19879;SDS011;10102;50.828;4.416;2023-03-23T07:37:58;2.97;;;1.65;;
19879;SDS011;10102;50.828;4.416;2023-03-23T07:40:25;4.88;;;2.03;;
19879;SDS011;10102;50.828;4.416;2023-03-23T07:42:52;4.93;;;2.33;;
19879;SDS011;10102;50.828;4.416;2023-03-23T07:45:20;6.10;;;2.10;;
19879;SDS011;10102;50.828;4.416;2023-03-23T07:47:46;14.18;;;2.38;;
19879;SDS011;10102;50.828;4.416;2023-03-23T07:50:12;4.32;;;2.00;;
19879;SDS011;10102;50.828;4.416;2023-03-23T07:52:38;5.75;;;2.10;;
19879;SDS011;10102;50.828;4.416;2023-03-23T07:55:06;7.93;;;2.25;;
19879;SDS011;10102;50.828;4.416;2023-03-23T07:57:33;7.75;;;2.15;;
19879;SDS011;10102;50.828;4.416;2023-03-23T07:59:59;5.07;;;2.03;;
19879;SDS011;10102;50.828;4.416;2023-03-23T08:02:25;7.20;;;1.60;;
19879;SDS011;10102;50.828;4.416;2023-03-23T08:04:51;8.35;;;1.92;;
19879;SDS011;10102;50.828;4.416;2023-03-23T08:07:19;4.97;;;1.52;;
19879;SDS011;10102;50.828;4.416;2023-03-23T08:09:45;4.25;;;1.65;;
19879;SDS011;10102;50.828;4.416;2023-03-23T08:12:12;3.45;;;1.40;;
19879;SDS011;10102;50.828;4.416;2023-03-23T08:14:38;4.85;;;1.50;;
19879;SDS011;10102;50.828;4.416;2023-03-23T08:17:06;1.92;;;1.20;;
19879;SDS011;10102;50.828;4.416;2023-03-23T08:19:33;3.78;;;1.35;;
19879;SDS011;10102;50.828;4.416;2023-03-23T08:22:02;1.67;;;1.23;;
19879;SDS011;10102;50.828;4.416;2023-03-23T08:24:29;2.20;;;0.98;;
19879;SDS011;10102;50.828;4.416;2023-03-23T08:26:55;3.72;;;1.30;;
19879;SDS011;10102;50.828;4.416;2023-03-23T08:29:21;2.08;;;1.30;;
19879;SDS011;10102;50.828;4.416;2023-03-23T08:31:47;2.45;;;1.30;;
19879;SDS011;10102;50.828;4.416;2023-03-23T08:34:12;2.22;;;0.90;;
19879;SDS011;10102;50.828;4.416;2023-03-23T08:36:38;4.90;;;1.73;;
19879;SDS011;10102;50.828;4.416;2023-03-23T08:39:05;5.90;;;1.60;;
19879;SDS011;10102;50.828;4.416;2023-03-23T08:41:31;1.85;;;1.20;;
19879;SDS011;10102;50.828;4.416;2023-03-23T08:43:57;4.63;;;1.55;;
19879;SDS011;10102;50.828;4.416;2023-03-23T08:46:22;3.33;;;1.48;;
19879;SDS011;10102;50.828;4.416;2023-03-23T08:48:48;2.00;;;1.40;;
19879;SDS011;10102;50.828;4.416;2023-03-23T08:51:14;3.22;;;1.42;;
19879;SDS011;10102;50.828;4.416;2023-03-23T08:53:40;4.32;;;1.60;;
19879;SDS011;10102;50.828;4.416;2023-03-23T08:56:08;2.28;;;1.25;;
19879;SDS011;10102;50.828;4.416;2023-03-23T08:58:36;7.30;;;1.88;;
19879;SDS011;10102;50.828;4.416;2023-03-23T09:01:03;4.78;;;1.67;;
19879;SDS011;10102;50.828;4.416;2023-03-23T09:03:31;1.70;;;1.38;;
19879;SDS011;10102;50.828;4.416;2023-03-23T09:05:58;3.45;;;1.38;;
19879;SDS011;10102;50.828;4.416;2023-03-23T09:08:29;2.45;;;1.35;;
19879;SDS011;10102;50.828;4.416;2023-03-23T09:10:58;8.50;;;2.03;;
19879;SDS011;10102;50.828;4.416;2023-03-23T09:13:24;4.78;;;1.73;;
19879;SDS011;10102;50.828;4.416;2023-03-23T09:15:50;3.88;;;1.75;;
19879;SDS011;10102;50.828;4.416;2023-03-23T09:18:17;5.57;;;2.65;;
19879;SDS011;10102;50.828;4.416;2023-03-23T09:20:43;6.03;;;2.25;;
19879;SDS011;10102;50.828;4.416;2023-03-23T09:23:09;8.60;;;2.13;;
19879;SDS011;10102;50.828;4.416;2023-03-23T09:25:35;7.57;;;2.25;;
19879;SDS011;10102;50.828;4.416;2023-03-23T09:28:01;6.50;;;2.60;;
19879;SDS011;10102;50.828;4.416;2023-03-23T09:30:28;6.43;;;2.60;;
19879;SDS011;10102;50.828;4.416;2023-03-23T09:32:55;6.32;;;2.80;;
19879;SDS011;10102;50.828;4.416;2023-03-23T09:35:22;4.45;;;2.47;;
19879;SDS011;10102;50.828;4.416;2023-03-23T09:37:50;4.82;;;2.08;;
19879;SDS011;10102;50.828;4.416;2023-03-23T09:40:21;2.65;;;1.80;;
19879;SDS011;10102;50.828;4.416;2023-03-23T09:51:25;4.13;;;1.83;;
19879;SDS011;10102;50.828;4.416;2023-03-23T09:54:28;8.63;;;2.50;;
19879;SDS011;10102;50.828;4.416;2023-03-23T09:56:57;3.22;;;1.80;;
19879;SDS011;10102;50.828;4.416;2023-03-23T10:01:57;4.88;;;2.20;;
19879;SDS011;10102;50.828;4.416;2023-03-23T10:04:39;3.40;;;2.03;;
19879;SDS011;10102;50.828;4.416;2023-03-23T10:07:11;3.65;;;2.10;;
19879;SDS011;10102;50.828;4.416;2023-03-23T10:09:42;1.92;;;1.63;;
19879;SDS011;10102;50.828;4.416;2023-03-23T10:12:14;5.10;;;2.15;;
19879;SDS011;10102;50.828;4.416;2023-03-23T10:14:52;5.65;;;2.40;;
19879;SDS011;10102;50.828;4.416;2023-03-23T10:20:32;4.45;;;1.80;;
19879;SDS011;10102;50.828;4.416;2023-03-23T10:28:37;6.15;;;2.15;;
19879;SDS011;10102;50.828;4.416;2023-03-23T10:31:18;3.80;;;1.85;;
19879;SDS011;10102;50.828;4.416;2023-03-23T10:33:48;7.32;;;2.17;;
19879;SDS011;10102;50.828;4.416;2023-03-23T10:36:22;8.88;;;2.40;;
19879;SDS011;10102;50.828;4.416;2023-03-23T10:39:12;6.60;;;2.55;;
19879;SDS011;10102;50.828;4.416;2023-03-23T10:41:38;6.00;;;2.08;;
19879;SDS011;10102;50.828;4.416;2023-03-23T10:44:10;6.30;;;2.13;;
19879;SDS011;10102;50.828;4.416;2023-03-23T10:46:50;10.45;;;3.00;;
19879;SDS011;10102;50.828;4.416;2023-03-23T10:49:26;7.47;;;3.53;;
19879;SDS011;10102;50.828;4.416;2023-03-23T10:54:37;6.13;;;2.25;;
19879;SDS011;10102;50.828;4.416;2023-03-23T10:57:23;4.90;;;2.38;;
19879;SDS011;10102;50.828;4.416;2023-03-23T10:59:49;6.32;;;2.35;;
19879;SDS011;10102;50.828;4.416;2023-03-23T11:02:18;7.70;;;2.45;;
19879;SDS011;10102;50.828;4.416;2023-03-23T11:05:01;5.72;;;2.45;;
19879;SDS011;10102;50.828;4.416;2023-03-23T11:07:31;7.03;;;2.20;;
19879;SDS011;10102;50.828;4.416;2023-03-23T11:10:21;5.10;;;2.30;;
19879;SDS011;10102;50.828;4.416;2023-03-23T11:12:49;11.13;;;2.60;;
19879;SDS011;10102;50.828;4.416;2023-03-23T11:15:48;5.32;;;1.75;;
19879;SDS011;10102;50.828;4.416;2023-03-23T11:18:10;6.40;;;2.05;;
19879;SDS011;10102;50.828;4.416;2023-03-23T11:20:52;5.38;;;2.47;;
19879;SDS011;10102;50.828;4.416;2023-03-23T11:23:27;6.47;;;2.40;;
19879;SDS011;10102;50.828;4.416;2023-03-23T11:25:55;7.97;;;2.15;;
19879;SDS011;10102;50.828;4.416;2023-03-23T11:28:36;8.68;;;1.98;;
19879;SDS011;10102;50.828;4.416;2023-03-23T11:31:06;6.13;;;2.13;;
19879;SDS011;10102;50.828;4.416;2023-03-23T11:33:37;8.63;;;2.40;;
19879;SDS011;10102;50.828;4.416;2023-03-23T11:36:16;8.15;;;2.03;;
19879;SDS011;10102;50.828;4.416;2023-03-23T11:38:42;5.78;;;2.60;;
19879;SDS011;10102;50.828;4.416;2023-03-23T11:41:12;3.33;;;1.63;;
19879;SDS011;10102;50.828;4.416;2023-03-23T11:43:45;11.32;;;2.15;;
19879;SDS011;10102;50.828;4.416;2023-03-23T11:48:57;6.18;;;1.77;;
19879;SDS011;10102;50.828;4.416;2023-03-23T11:51:26;5.18;;;1.92;;
19879;SDS011;10102;50.828;4.416;2023-03-23T11:56:37;8.20;;;1.88;;
19879;SDS011;10102;50.828;4.416;2023-03-23T11:59:10;3.47;;;1.52;;
19879;SDS011;10102;50.828;4.416;2023-03-23T12:04:57;5.82;;;1.88;;
19879;SDS011;10102;50.828;4.416;2023-03-23T12:13:29;5.03;;;1.83;;
19879;SDS011;10102;50.828;4.416;2023-03-23T12:29:50;7.00;;;1.85;;
19879;SDS011;10102;50.828;4.416;2023-03-23T12:46:14;7.93;;;2.10;;
19879;SDS011;10102;50.828;4.416;2023-03-23T12:59:19;7.05;;;2.17;;
19879;SDS011;10102;50.828;4.416;2023-03-23T13:04:41;10.25;;;2.80;;
19879;SDS011;10102;50.828;4.416;2023-03-23T13:07:12;4.85;;;1.98;;
19879;SDS011;10102;50.828;4.416;2023-03-23T13:12:09;4.90;;;1.88;;
19879;SDS011;10102;50.828;4.416;2023-03-23T13:14:51;8.82;;;2.33;;
19879;SDS011;10102;50.828;4.416;2023-03-23T13:23:17;5.90;;;2.10;;
19879;SDS011;10102;50.828;4.416;2023-03-23T13:28:21;5.70;;;1.83;;
19879;SDS011;10102;50.828;4.416;2023-03-23T13:31:24;7.40;;;2.20;;
19879;SDS011;10102;50.828;4.416;2023-03-23T13:33:46;4.30;;;2.00;;
19879;SDS011;10102;50.828;4.416;2023-03-23T13:36:15;9.75;;;1.95;;
19879;SDS011;10102;50.828;4.416;2023-03-23T13:38:45;10.75;;;2.30;;
19879;SDS011;10102;50.828;4.416;2023-03-23T13:41:13;7.97;;;1.85;;
19879;SDS011;10102;50.828;4.416;2023-03-23T13:43:42;10.85;;;2.50;;
19879;SDS011;10102;50.828;4.416;2023-03-23T13:46:30;8.38;;;1.98;;
19879;SDS011;10102;50.828;4.416;2023-03-23T13:51:36;8.20;;;2.15;;
19879;SDS011;10102;50.828;4.416;2023-03-23T13:56:58;7.03;;;2.22;;
19879;SDS011;10102;50.828;4.416;2023-03-23T14:01:51;14.43;;;2.58;;
19879;SDS011;10102;50.828;4.416;2023-03-23T14:04:20;3.97;;;2.25;;
19879;SDS011;10102;50.828;4.416;2023-03-23T14:06:47;8.38;;;2.10;;
19879;SDS011;10102;50.828;4.416;2023-03-23T14:11:49;8.38;;;2.53;;
19879;SDS011;10102;50.828;4.416;2023-03-23T14:14:23;19.83;;;2.97;;
19879;SDS011;10102;50.828;4.416;2023-03-23T14:16:50;12.70;;;2.92;;
19879;SDS011;10102;50.828;4.416;2023-03-23T14:19:26;10.05;;;2.40;;
19879;SDS011;10102;50.828;4.416;2023-03-23T14:21:58;10.38;;;2.60;;
19879;SDS011;10102;50.828;4.416;2023-03-23T14:24:31;7.60;;;2.45;;
19879;SDS011;10102;50.828;4.416;2023-03-23T14:27:08;10.05;;;2.30;;
19879;SDS011;10102;50.828;4.416;2023-03-23T14:29:39;12.98;;;2.85;;
19879;SDS011;10102;50.828;4.416;2023-03-23T14:32:06;10.15;;;2.22;;
19879;SDS011;10102;50.828;4.416;2023-03-23T14:34:35;7.65;;;2.33;;
19879;SDS011;10102;50.828;4.416;2023-03-23T14:37:00;9.27;;;2.40;;
19879;SDS011;10102;50.828;4.416;2023-03-23T14:39:28;10.90;;;2.33;;
19879;SDS011;10102;50.828;4.416;2023-03-23T14:41:57;15.38;;;3.38;;
19879;SDS011;10102;50.828;4.416;2023-03-23T14:44:33;15.10;;;2.80;;
19879;SDS011;10102;50.828;4.416;2023-03-23T14:47:04;12.13;;;3.20;;
19879;SDS011;10102;50.828;4.416;2023-03-23T14:49:33;7.35;;;2.30;;
19879;SDS011;10102;50.828;4.416;2023-03-23T14:52:13;7.68;;;2.38;;
19879;SDS011;10102;50.828;4.416;2023-03-23T14:54:41;10.18;;;1.98;;
19879;SDS011;10102;50.828;4.416;2023-03-23T14:57:10;10.63;;;2.42;;
19879;SDS011;10102;50.828;4.416;2023-03-23T14:59:44;11.45;;;2.90;;
19879;SDS011;10102;50.828;4.416;2023-03-23T15:02:12;10.68;;;2.83;;
19879;SDS011;10102;50.828;4.416;2023-03-23T15:04:52;9.18;;;2.78;;
19879;SDS011;10102;50.828;4.416;2023-03-23T15:07:23;10.85;;;3.33;;
19879;SDS011;10102;50.828;4.416;2023-03-23T15:10:06;9.20;;;2.42;;
19879;SDS011;10102;50.828;4.416;2023-03-23T15:12:33;16.65;;;3.03;;
19879;SDS011;10102;50.828;4.416;2023-03-23T15:15:04;14.30;;;2.80;;
19879;SDS011;10102;50.828;4.416;2023-03-23T15:17:34;7.03;;;2.70;;
19879;SDS011;10102;50.828;4.416;2023-03-23T15:20:09;7.43;;;2.38;;
19879;SDS011;10102;50.828;4.416;2023-03-23T15:22:36;8.40;;;2.10;;
19879;SDS011;10102;50.828;4.416;2023-03-23T15:27:43;8.23;;;2.45;;
19879;SDS011;10102;50.828;4.416;2023-03-23T15:32:55;11.88;;;2.65;;
19879;SDS011;10102;50.828;4.416;2023-03-23T15:35:49;9.32;;;3.20;;
19879;SDS011;10102;50.828;4.416;2023-03-23T15:38:32;10.93;;;2.97;;
19879;SDS011;10102;50.828;4.416;2023-03-23T15:41:00;11.68;;;2.58;;
19879;SDS011;10102;50.828;4.416;2023-03-23T15:43:30;13.63;;;2.60;;
19879;SDS011;10102;50.828;4.416;2023-03-23T15:45:58;10.02;;;2.70;;
19879;SDS011;10102;50.828;4.416;2023-03-23T15:48:30;10.68;;;2.50;;
19879;SDS011;10102;50.828;4.416;2023-03-23T15:50:58;10.95;;;2.78;;
19879;SDS011;10102;50.828;4.416;2023-03-23T15:53:37;6.55;;;2.80;;
19879;SDS011;10102;50.828;4.416;2023-03-23T15:56:06;13.93;;;3.00;;
19879;SDS011;10102;50.828;4.416;2023-03-23T15:58:34;11.27;;;2.78;;
19879;SDS011;10102;50.828;4.416;2023-03-23T16:01:01;10.48;;;2.72;;
19879;SDS011;10102;50.828;4.416;2023-03-23T16:03:51;11.50;;;3.10;;
19879;SDS011;10102;50.828;4.416;2023-03-23T16:06:23;11.52;;;2.55;;
19879;SDS011;10102;50.828;4.416;2023-03-23T16:08:54;12.25;;;3.10;;
19879;SDS011;10102;50.828;4.416;2023-03-23T16:11:20;11.07;;;3.47;;
19879;SDS011;10102;50.828;4.416;2023-03-23T16:13:48;10.25;;;2.88;;
19879;SDS011;10102;50.828;4.416;2023-03-23T16:16:24;13.82;;;2.88;;
19879;SDS011;10102;50.828;4.416;2023-03-23T16:18:53;9.45;;;2.67;;
19879;SDS011;10102;50.828;4.416;2023-03-23T16:21:19;15.57;;;2.63;;
19879;SDS011;10102;50.828;4.416;2023-03-23T16:23:44;8.63;;;2.80;;
19879;SDS011;10102;50.828;4.416;2023-03-23T16:26:10;7.50;;;2.80;;
19879;SDS011;10102;50.828;4.416;2023-03-23T16:28:37;9.80;;;3.00;;
19879;SDS011;10102;50.828;4.416;2023-03-23T16:31:03;8.70;;;3.28;;
19879;SDS011;10102;50.828;4.416;2023-03-23T16:33:29;13.48;;;2.90;;
19879;SDS011;10102;50.828;4.416;2023-03-23T16:35:54;9.85;;;2.70;;
19879;SDS011;10102;50.828;4.416;2023-03-23T16:38:22;8.95;;;2.67;;
19879;SDS011;10102;50.828;4.416;2023-03-23T16:40:48;7.10;;;2.20;;
19879;SDS011;10102;50.828;4.416;2023-03-23T16:43:14;6.72;;;2.42;;
19879;SDS011;10102;50.828;4.416;2023-03-23T16:45:40;16.02;;;3.42;;
19879;SDS011;10102;50.828;4.416;2023-03-23T16:48:08;15.90;;;2.53;;
19879;SDS011;10102;50.828;4.416;2023-03-23T16:50:35;10.60;;;2.65;;
19879;SDS011;10102;50.828;4.416;2023-03-23T16:53:02;6.65;;;2.30;;
19879;SDS011;10102;50.828;4.416;2023-03-23T16:55:29;8.85;;;2.40;;
19879;SDS011;10102;50.828;4.416;2023-03-23T16:57:55;8.57;;;2.33;;
19879;SDS011;10102;50.828;4.416;2023-03-23T17:00:22;7.68;;;1.83;;
19879;SDS011;10102;50.828;4.416;2023-03-23T17:02:50;7.60;;;2.53;;
19879;SDS011;10102;50.828;4.416;2023-03-23T17:05:18;10.77;;;2.63;;
19879;SDS011;10102;50.828;4.416;2023-03-23T17:07:45;12.55;;;2.63;;